sensor_id;sensor_type;location;lat;lon;timestamp;P1;durP1;ratioP1;P2;durP2;ratioP2
64313;SDS011;50650;48.180;11.524;2023-04-15T00:00:57;5.00;;;2.30;;
64313;SDS011;50650;48.180;11.524;2023-04-15T00:03:24;6.75;;;2.05;;
64313;SDS011;50650;48.180;11.524;2023-04-15T00:05:50;6.55;;;2.33;;
64313;SDS011;50650;48.180;11.524;2023-04-15T00:08:17;3.15;;;1.70;;
64313;SDS011;50650;48.180;11.524;2023-04-15T00:10:43;4.93;;;1.95;;
64313;SDS011;50650;48.180;11.524;2023-04-15T00:13:10;4.20;;;1.90;;
64313;SDS011;50650;48.180;11.524;2023-04-15T00:15:38;4.80;;;2.08;;
64313;SDS011;50650;48.180;11.524;2023-04-15T00:18:06;6.55;;;2.33;;
64313;SDS011;50650;48.180;11.524;2023-04-15T00:20:33;5.85;;;2.30;;
64313;SDS011;50650;48.180;11.524;2023-04-15T00:23:00;8.43;;;2.35;;
64313;SDS011;50650;48.180;11.524;2023-04-15T00:25:28;4.00;;;1.73;;
64313;SDS011;50650;48.180;11.524;2023-04-15T00:27:54;5.20;;;2.05;;
64313;SDS011;50650;48.180;11.524;2023-04-15T00:30:21;5.38;;;2.10;;
64313;SDS011;50650;48.180;11.524;2023-04-15T00:32:49;8.85;;;2.47;;
64313;SDS011;50650;48.180;11.524;2023-04-15T00:35:15;5.13;;;1.77;;
64313;SDS011;50650;48.180;11.524;2023-04-15T00:37:42;5.35;;;2.03;;
64313;SDS011;50650;48.180;11.524;2023-04-15T00:40:09;4.78;;;2.20;;
64313;SDS011;50650;48.180;11.524;2023-04-15T00:42:37;5.72;;;2.70;;
64313;SDS011;50650;48.180;11.524;2023-04-15T00:45:04;6.32;;;1.90;;
64313;SDS011;50650;48.180;11.524;2023-04-15T00:47:32;7.35;;;2.50;;
64313;SDS011;50650;48.180;11.524;2023-04-15T00:50:02;5.90;;;2.40;;
64313;SDS011;50650;48.180;11.524;2023-04-15T00:52:29;3.80;;;2.00;;
64313;SDS011;50650;48.180;11.524;2023-04-15T00:54:56;7.53;;;2.55;;
64313;SDS011;50650;48.180;11.524;2023-04-15T00:57:22;3.03;;;1.90;;
64313;SDS011;50650;48.180;11.524;2023-04-15T00:59:49;5.72;;;2.30;;
64313;SDS011;50650;48.180;11.524;2023-04-15T01:02:16;4.93;;;1.98;;
64313;SDS011;50650;48.180;11.524;2023-04-15T01:04:43;4.97;;;2.38;;
64313;SDS011;50650;48.180;11.524;2023-04-15T01:07:11;3.42;;;2.13;;
64313;SDS011;50650;48.180;11.524;2023-04-15T01:09:37;5.25;;;2.42;;
64313;SDS011;50650;48.180;11.524;2023-04-15T01:12:04;5.55;;;2.35;;
64313;SDS011;50650;48.180;11.524;2023-04-15T01:14:32;5.60;;;2.42;;
64313;SDS011;50650;48.180;11.524;2023-04-15T01:16:59;13.15;;;2.50;;
64313;SDS011;50650;48.180;11.524;2023-04-15T01:19:26;4.82;;;2.17;;
64313;SDS011;50650;48.180;11.524;2023-04-15T01:21:52;6.38;;;3.05;;
64313;SDS011;50650;48.180;11.524;2023-04-15T01:24:20;5.43;;;2.33;;
64313;SDS011;50650;48.180;11.524;2023-04-15T01:26:49;5.18;;;2.60;;
64313;SDS011;50650;48.180;11.524;2023-04-15T01:29:16;8.50;;;3.08;;
64313;SDS011;50650;48.180;11.524;2023-04-15T01:31:47;3.50;;;2.50;;
64313;SDS011;50650;48.180;11.524;2023-04-15T01:34:14;3.90;;;2.58;;
64313;SDS011;50650;48.180;11.524;2023-04-15T01:36:41;5.15;;;2.70;;
64313;SDS011;50650;48.180;11.524;2023-04-15T01:39:07;5.15;;;2.58;;
64313;SDS011;50650;48.180;11.524;2023-04-15T01:41:34;6.85;;;2.53;;
64313;SDS011;50650;48.180;11.524;2023-04-15T01:44:02;4.50;;;2.70;;
64313;SDS011;50650;48.180;11.524;2023-04-15T01:46:28;4.65;;;2.60;;
64313;SDS011;50650;48.180;11.524;2023-04-15T01:48:55;6.55;;;3.25;;
64313;SDS011;50650;48.180;11.524;2023-04-15T01:51:21;7.40;;;3.08;;
64313;SDS011;50650;48.180;11.524;2023-04-15T01:53:47;6.95;;;2.78;;
64313;SDS011;50650;48.180;11.524;2023-04-15T01:56:14;4.32;;;2.85;;
64313;SDS011;50650;48.180;11.524;2023-04-15T01:58:40;4.60;;;2.35;;
64313;SDS011;50650;48.180;11.524;2023-04-15T02:01:08;5.50;;;2.75;;
64313;SDS011;50650;48.180;11.524;2023-04-15T02:03:35;5.43;;;2.92;;
64313;SDS011;50650;48.180;11.524;2023-04-15T02:06:02;5.10;;;2.53;;
64313;SDS011;50650;48.180;11.524;2023-04-15T02:08:30;7.10;;;2.70;;
64313;SDS011;50650;48.180;11.524;2023-04-15T02:10:56;4.50;;;2.70;;
64313;SDS011;50650;48.180;11.524;2023-04-15T02:13:23;5.80;;;2.40;;
64313;SDS011;50650;48.180;11.524;2023-04-15T02:15:49;6.15;;;2.90;;
64313;SDS011;50650;48.180;11.524;2023-04-15T02:18:17;6.20;;;2.97;;
64313;SDS011;50650;48.180;11.524;2023-04-15T02:20:44;4.97;;;2.92;;
64313;SDS011;50650;48.180;11.524;2023-04-15T02:23:11;5.38;;;3.08;;
64313;SDS011;50650;48.180;11.524;2023-04-15T02:25:38;6.53;;;3.13;;
64313;SDS011;50650;48.180;11.524;2023-04-15T02:28:04;3.97;;;2.63;;
64313;SDS011;50650;48.180;11.524;2023-04-15T02:30:31;6.50;;;2.85;;
64313;SDS011;50650;48.180;11.524;2023-04-15T02:32:59;4.53;;;2.80;;
64313;SDS011;50650;48.180;11.524;2023-04-15T02:35:27;7.88;;;3.08;;
64313;SDS011;50650;48.180;11.524;2023-04-15T02:37:53;6.88;;;3.20;;
64313;SDS011;50650;48.180;11.524;2023-04-15T02:40:20;5.18;;;3.05;;
64313;SDS011;50650;48.180;11.524;2023-04-15T02:42:46;4.80;;;2.97;;
64313;SDS011;50650;48.180;11.524;2023-04-15T02:45:13;6.00;;;2.83;;
64313;SDS011;50650;48.180;11.524;2023-04-15T02:47:39;7.10;;;3.00;;
64313;SDS011;50650;48.180;11.524;2023-04-15T02:50:08;4.80;;;2.70;;
64313;SDS011;50650;48.180;11.524;2023-04-15T02:52:37;6.10;;;2.83;;
64313;SDS011;50650;48.180;11.524;2023-04-15T02:55:04;6.43;;;2.72;;
64313;SDS011;50650;48.180;11.524;2023-04-15T02:57:32;3.95;;;2.80;;
64313;SDS011;50650;48.180;11.524;2023-04-15T03:00:00;7.60;;;3.30;;
64313;SDS011;50650;48.180;11.524;2023-04-15T03:02:27;5.57;;;2.80;;
64313;SDS011;50650;48.180;11.524;2023-04-15T03:04:58;3.38;;;2.58;;
64313;SDS011;50650;48.180;11.524;2023-04-15T03:07:25;3.88;;;2.80;;
64313;SDS011;50650;48.180;11.524;2023-04-15T03:09:53;6.82;;;2.78;;
64313;SDS011;50650;48.180;11.524;2023-04-15T03:12:19;7.65;;;2.83;;
64313;SDS011;50650;48.180;11.524;2023-04-15T03:14:46;5.38;;;2.78;;
64313;SDS011;50650;48.180;11.524;2023-04-15T03:17:12;3.78;;;2.42;;
64313;SDS011;50650;48.180;11.524;2023-04-15T03:19:38;5.47;;;2.38;;
64313;SDS011;50650;48.180;11.524;2023-04-15T03:22:05;6.10;;;2.70;;
64313;SDS011;50650;48.180;11.524;2023-04-15T03:24:31;5.70;;;2.35;;
64313;SDS011;50650;48.180;11.524;2023-04-15T03:26:59;4.40;;;2.67;;
64313;SDS011;50650;48.180;11.524;2023-04-15T03:29:26;4.97;;;2.30;;
64313;SDS011;50650;48.180;11.524;2023-04-15T03:31:52;6.65;;;2.72;;
64313;SDS011;50650;48.180;11.524;2023-04-15T03:34:21;4.65;;;2.63;;
64313;SDS011;50650;48.180;11.524;2023-04-15T03:36:48;9.75;;;2.47;;
64313;SDS011;50650;48.180;11.524;2023-04-15T03:39:14;3.85;;;2.38;;
64313;SDS011;50650;48.180;11.524;2023-04-15T03:41:41;5.90;;;2.70;;
64313;SDS011;50650;48.180;11.524;2023-04-15T03:44:09;3.97;;;2.30;;
64313;SDS011;50650;48.180;11.524;2023-04-15T03:46:35;3.83;;;2.40;;
64313;SDS011;50650;48.180;11.524;2023-04-15T03:49:02;6.10;;;2.80;;
64313;SDS011;50650;48.180;11.524;2023-04-15T03:51:28;5.00;;;2.78;;
64313;SDS011;50650;48.180;11.524;2023-04-15T03:53:55;5.85;;;2.75;;
64313;SDS011;50650;48.180;11.524;2023-04-15T03:56:22;3.58;;;2.17;;
64313;SDS011;50650;48.180;11.524;2023-04-15T03:58:49;3.70;;;2.28;;
64313;SDS011;50650;48.180;11.524;2023-04-15T04:01:17;6.88;;;2.58;;
64313;SDS011;50650;48.180;11.524;2023-04-15T04:03:43;9.27;;;2.78;;
64313;SDS011;50650;48.180;11.524;2023-04-15T04:06:10;4.07;;;2.60;;
64313;SDS011;50650;48.180;11.524;2023-04-15T04:08:37;6.47;;;2.50;;
64313;SDS011;50650;48.180;11.524;2023-04-15T04:11:03;7.93;;;2.60;;
64313;SDS011;50650;48.180;11.524;2023-04-15T04:13:30;4.43;;;2.25;;
64313;SDS011;50650;48.180;11.524;2023-04-15T04:15:57;4.80;;;2.00;;
64313;SDS011;50650;48.180;11.524;2023-04-15T04:18:24;5.75;;;2.30;;
64313;SDS011;50650;48.180;11.524;2023-04-15T04:20:51;4.03;;;2.15;;
64313;SDS011;50650;48.180;11.524;2023-04-15T04:23:17;7.20;;;2.58;;
64313;SDS011;50650;48.180;11.524;2023-04-15T04:25:44;5.47;;;2.22;;
64313;SDS011;50650;48.180;11.524;2023-04-15T04:28:10;4.70;;;2.50;;
64313;SDS011;50650;48.180;11.524;2023-04-15T04:30:40;4.63;;;2.40;;
64313;SDS011;50650;48.180;11.524;2023-04-15T04:33:06;4.80;;;2.17;;
64313;SDS011;50650;48.180;11.524;2023-04-15T04:35:34;4.93;;;2.15;;
64313;SDS011;50650;48.180;11.524;2023-04-15T04:38:01;5.05;;;2.47;;
64313;SDS011;50650;48.180;11.524;2023-04-15T04:40:28;4.00;;;1.80;;
64313;SDS011;50650;48.180;11.524;2023-04-15T04:42:54;5.53;;;2.10;;
64313;SDS011;50650;48.180;11.524;2023-04-15T04:45:21;7.30;;;2.55;;
64313;SDS011;50650;48.180;11.524;2023-04-15T04:47:51;4.22;;;2.17;;
64313;SDS011;50650;48.180;11.524;2023-04-15T04:50:17;3.55;;;2.00;;
64313;SDS011;50650;48.180;11.524;2023-04-15T04:52:47;5.88;;;2.28;;
64313;SDS011;50650;48.180;11.524;2023-04-15T04:55:14;3.45;;;2.08;;
64313;SDS011;50650;48.180;11.524;2023-04-15T04:57:40;4.30;;;2.22;;
64313;SDS011;50650;48.180;11.524;2023-04-15T05:00:07;4.00;;;1.73;;
64313;SDS011;50650;48.180;11.524;2023-04-15T05:02:34;4.28;;;1.85;;
64313;SDS011;50650;48.180;11.524;2023-04-15T05:05:01;4.97;;;1.95;;
64313;SDS011;50650;48.180;11.524;2023-04-15T05:07:27;5.32;;;1.98;;
64313;SDS011;50650;48.180;11.524;2023-04-15T05:09:58;4.63;;;2.22;;
64313;SDS011;50650;48.180;11.524;2023-04-15T05:12:24;5.93;;;1.90;;
64313;SDS011;50650;48.180;11.524;2023-04-15T05:14:50;4.60;;;1.70;;
64313;SDS011;50650;48.180;11.524;2023-04-15T05:17:17;5.80;;;1.95;;
64313;SDS011;50650;48.180;11.524;2023-04-15T05:19:44;4.32;;;2.13;;
64313;SDS011;50650;48.180;11.524;2023-04-15T05:22:10;4.57;;;1.88;;
64313;SDS011;50650;48.180;11.524;2023-04-15T05:24:36;5.00;;;1.63;;
64313;SDS011;50650;48.180;11.524;2023-04-15T05:27:04;4.72;;;1.65;;
64313;SDS011;50650;48.180;11.524;2023-04-15T05:29:32;5.78;;;1.77;;
64313;SDS011;50650;48.180;11.524;2023-04-15T05:31:59;5.70;;;1.85;;
64313;SDS011;50650;48.180;11.524;2023-04-15T05:34:25;4.35;;;1.30;;
64313;SDS011;50650;48.180;11.524;2023-04-15T05:36:52;4.25;;;1.45;;
64313;SDS011;50650;48.180;11.524;2023-04-15T05:39:18;6.22;;;1.92;;
64313;SDS011;50650;48.180;11.524;2023-04-15T05:41:44;5.53;;;1.50;;
64313;SDS011;50650;48.180;11.524;2023-04-15T05:44:12;6.68;;;2.28;;
64313;SDS011;50650;48.180;11.524;2023-04-15T05:46:38;3.70;;;1.52;;
64313;SDS011;50650;48.180;11.524;2023-04-15T05:49:05;5.93;;;1.73;;
64313;SDS011;50650;48.180;11.524;2023-04-15T05:51:32;5.28;;;1.58;;
64313;SDS011;50650;48.180;11.524;2023-04-15T05:53:58;6.68;;;1.40;;
64313;SDS011;50650;48.180;11.524;2023-04-15T05:56:25;7.10;;;1.70;;
64313;SDS011;50650;48.180;11.524;2023-04-15T05:58:52;5.65;;;1.83;;
64313;SDS011;50650;48.180;11.524;2023-04-15T06:01:20;3.55;;;1.40;;
64313;SDS011;50650;48.180;11.524;2023-04-15T06:03:47;2.97;;;1.17;;
64313;SDS011;50650;48.180;11.524;2023-04-15T06:06:14;4.05;;;1.40;;
64313;SDS011;50650;48.180;11.524;2023-04-15T06:08:40;3.55;;;1.23;;
64313;SDS011;50650;48.180;11.524;2023-04-15T06:11:06;4.43;;;1.38;;
64313;SDS011;50650;48.180;11.524;2023-04-15T06:13:33;6.57;;;1.50;;
64313;SDS011;50650;48.180;11.524;2023-04-15T06:15:59;3.53;;;1.27;;
64313;SDS011;50650;48.180;11.524;2023-04-15T06:18:27;5.70;;;1.60;;
64313;SDS011;50650;48.180;11.524;2023-04-15T06:20:54;3.22;;;1.38;;
64313;SDS011;50650;48.180;11.524;2023-04-15T06:23:20;4.07;;;1.45;;
64313;SDS011;50650;48.180;11.524;2023-04-15T06:25:47;3.17;;;1.35;;
64313;SDS011;50650;48.180;11.524;2023-04-15T06:28:13;6.32;;;1.30;;
64313;SDS011;50650;48.180;11.524;2023-04-15T06:30:40;5.15;;;1.48;;
64313;SDS011;50650;48.180;11.524;2023-04-15T06:33:06;4.90;;;1.20;;
64313;SDS011;50650;48.180;11.524;2023-04-15T06:35:34;3.03;;;1.40;;
64313;SDS011;50650;48.180;11.524;2023-04-15T06:38:00;4.95;;;1.45;;
64313;SDS011;50650;48.180;11.524;2023-04-15T06:40:26;3.75;;;1.25;;
64313;SDS011;50650;48.180;11.524;2023-04-15T06:42:56;9.23;;;1.30;;
64313;SDS011;50650;48.180;11.524;2023-04-15T06:45:22;1.88;;;0.73;;
64313;SDS011;50650;48.180;11.524;2023-04-15T06:47:48;3.75;;;1.20;;
64313;SDS011;50650;48.180;11.524;2023-04-15T06:50:15;2.08;;;0.80;;
64313;SDS011;50650;48.180;11.524;2023-04-15T06:52:43;4.47;;;1.35;;
64313;SDS011;50650;48.180;11.524;2023-04-15T06:55:09;3.50;;;1.10;;
64313;SDS011;50650;48.180;11.524;2023-04-15T06:57:35;3.55;;;1.20;;
64313;SDS011;50650;48.180;11.524;2023-04-15T07:00:02;3.88;;;1.02;;
64313;SDS011;50650;48.180;11.524;2023-04-15T07:02:29;2.03;;;0.90;;
64313;SDS011;50650;48.180;11.524;2023-04-15T07:04:56;4.55;;;1.27;;
64313;SDS011;50650;48.180;11.524;2023-04-15T07:07:22;3.30;;;1.10;;
64313;SDS011;50650;48.180;11.524;2023-04-15T07:09:50;4.20;;;1.02;;
64313;SDS011;50650;48.180;11.524;2023-04-15T07:12:17;4.32;;;1.35;;
64313;SDS011;50650;48.180;11.524;2023-04-15T07:14:44;2.92;;;1.08;;
64313;SDS011;50650;48.180;11.524;2023-04-15T07:17:10;4.20;;;1.20;;
64313;SDS011;50650;48.180;11.524;2023-04-15T07:19:37;2.47;;;1.02;;
64313;SDS011;50650;48.180;11.524;2023-04-15T07:22:06;5.27;;;1.03;;
64313;SDS011;50650;48.180;11.524;2023-04-15T07:24:32;3.75;;;1.20;;
64313;SDS011;50650;48.180;11.524;2023-04-15T07:27:00;11.13;;;1.10;;
64313;SDS011;50650;48.180;11.524;2023-04-15T07:29:26;4.70;;;1.05;;
64313;SDS011;50650;48.180;11.524;2023-04-15T07:31:53;3.35;;;1.05;;
64313;SDS011;50650;48.180;11.524;2023-04-15T07:34:21;3.50;;;1.10;;
64313;SDS011;50650;48.180;11.524;2023-04-15T07:36:50;7.07;;;1.13;;
64313;SDS011;50650;48.180;11.524;2023-04-15T07:39:17;5.47;;;1.15;;
64313;SDS011;50650;48.180;11.524;2023-04-15T07:41:43;5.05;;;0.90;;
64313;SDS011;50650;48.180;11.524;2023-04-15T07:44:11;2.90;;;1.23;;
64313;SDS011;50650;48.180;11.524;2023-04-15T07:46:38;4.18;;;0.95;;
64313;SDS011;50650;48.180;11.524;2023-04-15T07:49:04;2.10;;;0.70;;
64313;SDS011;50650;48.180;11.524;2023-04-15T07:51:31;7.88;;;1.40;;
64313;SDS011;50650;48.180;11.524;2023-04-15T07:53:57;6.80;;;1.35;;
64313;SDS011;50650;48.180;11.524;2023-04-15T07:56:24;4.80;;;1.10;;
64313;SDS011;50650;48.180;11.524;2023-04-15T07:58:51;4.97;;;1.13;;
64313;SDS011;50650;48.180;11.524;2023-04-15T08:01:18;4.85;;;1.20;;
64313;SDS011;50650;48.180;11.524;2023-04-15T08:03:45;3.20;;;1.30;;
64313;SDS011;50650;48.180;11.524;2023-04-15T08:06:12;3.13;;;1.20;;
64313;SDS011;50650;48.180;11.524;2023-04-15T08:08:38;2.67;;;1.13;;
64313;SDS011;50650;48.180;11.524;2023-04-15T08:11:05;3.08;;;1.05;;
64313;SDS011;50650;48.180;11.524;2023-04-15T08:13:32;3.40;;;0.88;;
64313;SDS011;50650;48.180;11.524;2023-04-15T08:16:15;3.35;;;1.10;;
64313;SDS011;50650;48.180;11.524;2023-04-15T08:18:44;1.98;;;1.08;;
64313;SDS011;50650;48.180;11.524;2023-04-15T08:21:11;2.30;;;1.25;;
64313;SDS011;50650;48.180;11.524;2023-04-15T08:23:38;3.33;;;0.90;;
64313;SDS011;50650;48.180;11.524;2023-04-15T08:26:04;3.33;;;1.35;;
64313;SDS011;50650;48.180;11.524;2023-04-15T08:28:31;5.45;;;1.30;;
64313;SDS011;50650;48.180;11.524;2023-04-15T08:30:58;2.45;;;1.05;;
64313;SDS011;50650;48.180;11.524;2023-04-15T08:33:24;3.70;;;1.10;;
64313;SDS011;50650;48.180;11.524;2023-04-15T08:35:52;4.30;;;1.20;;
64313;SDS011;50650;48.180;11.524;2023-04-15T08:38:19;2.95;;;1.20;;
64313;SDS011;50650;48.180;11.524;2023-04-15T08:40:45;5.00;;;1.52;;
64313;SDS011;50650;48.180;11.524;2023-04-15T08:43:14;4.32;;;1.20;;
64313;SDS011;50650;48.180;11.524;2023-04-15T08:45:44;3.50;;;1.10;;
64313;SDS011;50650;48.180;11.524;2023-04-15T08:48:11;1.63;;;0.90;;
64313;SDS011;50650;48.180;11.524;2023-04-15T08:50:41;2.30;;;1.40;;
64313;SDS011;50650;48.180;11.524;2023-04-15T08:53:08;5.78;;;1.83;;
64313;SDS011;50650;48.180;11.524;2023-04-15T08:55:35;5.28;;;1.60;;
64313;SDS011;50650;48.180;11.524;2023-04-15T08:58:07;3.20;;;1.50;;
64313;SDS011;50650;48.180;11.524;2023-04-15T09:00:34;4.15;;;1.50;;
64313;SDS011;50650;48.180;11.524;2023-04-15T09:03:01;2.92;;;1.00;;
64313;SDS011;50650;48.180;11.524;2023-04-15T09:05:30;5.35;;;1.30;;
64313;SDS011;50650;48.180;11.524;2023-04-15T09:07:57;4.95;;;1.15;;
64313;SDS011;50650;48.180;11.524;2023-04-15T09:10:25;3.40;;;1.35;;
64313;SDS011;50650;48.180;11.524;2023-04-15T09:12:51;3.63;;;1.30;;
64313;SDS011;50650;48.180;11.524;2023-04-15T09:15:18;2.60;;;1.15;;
64313;SDS011;50650;48.180;11.524;2023-04-15T09:17:47;4.55;;;1.77;;
64313;SDS011;50650;48.180;11.524;2023-04-15T09:20:14;2.40;;;1.20;;
64313;SDS011;50650;48.180;11.524;2023-04-15T09:22:44;2.95;;;1.20;;
64313;SDS011;50650;48.180;11.524;2023-04-15T09:25:28;2.63;;;1.40;;
64313;SDS011;50650;48.180;11.524;2023-04-15T09:27:55;5.90;;;1.50;;
64313;SDS011;50650;48.180;11.524;2023-04-15T09:30:22;3.70;;;1.30;;
64313;SDS011;50650;48.180;11.524;2023-04-15T09:32:49;3.13;;;1.60;;
64313;SDS011;50650;48.180;11.524;2023-04-15T09:35:16;2.83;;;1.50;;
64313;SDS011;50650;48.180;11.524;2023-04-15T09:37:42;2.75;;;1.42;;
64313;SDS011;50650;48.180;11.524;2023-04-15T09:40:09;3.75;;;1.10;;
64313;SDS011;50650;48.180;11.524;2023-04-15T09:42:37;3.45;;;1.42;;
64313;SDS011;50650;48.180;11.524;2023-04-15T09:45:19;3.75;;;1.40;;
64313;SDS011;50650;48.180;11.524;2023-04-15T09:47:46;4.55;;;1.70;;
64313;SDS011;50650;48.180;11.524;2023-04-15T09:50:13;3.20;;;1.80;;
64313;SDS011;50650;48.180;11.524;2023-04-15T09:52:40;4.07;;;1.83;;
64313;SDS011;50650;48.180;11.524;2023-04-15T09:55:08;5.18;;;1.95;;
64313;SDS011;50650;48.180;11.524;2023-04-15T09:57:35;5.70;;;2.15;;
64313;SDS011;50650;48.180;11.524;2023-04-15T10:00:03;4.22;;;1.90;;
64313;SDS011;50650;48.180;11.524;2023-04-15T10:02:32;2.80;;;1.50;;
64313;SDS011;50650;48.180;11.524;2023-04-15T10:04:58;4.15;;;1.42;;
64313;SDS011;50650;48.180;11.524;2023-04-15T10:07:25;4.88;;;1.67;;
64313;SDS011;50650;48.180;11.524;2023-04-15T10:09:51;3.25;;;1.80;;
64313;SDS011;50650;48.180;11.524;2023-04-15T10:12:18;2.45;;;1.75;;
64313;SDS011;50650;48.180;11.524;2023-04-15T10:14:46;3.28;;;1.73;;
64313;SDS011;50650;48.180;11.524;2023-04-15T10:17:16;4.82;;;1.70;;
64313;SDS011;50650;48.180;11.524;2023-04-15T10:19:43;3.22;;;1.95;;
64313;SDS011;50650;48.180;11.524;2023-04-15T10:22:10;4.15;;;2.85;;
64313;SDS011;50650;48.180;11.524;2023-04-15T10:24:37;4.82;;;2.17;;
64313;SDS011;50650;48.180;11.524;2023-04-15T10:27:04;4.88;;;2.47;;
64313;SDS011;50650;48.180;11.524;2023-04-15T10:29:30;6.43;;;2.78;;
64313;SDS011;50650;48.180;11.524;2023-04-15T10:31:57;45.67;;;16.02;;
64313;SDS011;50650;48.180;11.524;2023-04-15T10:34:26;257.23;;;76.43;;
64313;SDS011;50650;48.180;11.524;2023-04-15T10:36:53;207.52;;;62.28;;
64313;SDS011;50650;48.180;11.524;2023-04-15T10:39:42;28.13;;;10.30;;
64313;SDS011;50650;48.180;11.524;2023-04-15T10:42:09;38.45;;;11.23;;
64313;SDS011;50650;48.180;11.524;2023-04-15T10:44:37;9.80;;;3.13;;
64313;SDS011;50650;48.180;11.524;2023-04-15T10:47:05;6.32;;;2.60;;
64313;SDS011;50650;48.180;11.524;2023-04-15T10:49:42;16.42;;;5.47;;
64313;SDS011;50650;48.180;11.524;2023-04-15T10:52:10;7.90;;;2.88;;
64313;SDS011;50650;48.180;11.524;2023-04-15T10:54:36;13.40;;;4.47;;
64313;SDS011;50650;48.180;11.524;2023-04-15T10:57:07;4.53;;;2.20;;
64313;SDS011;50650;48.180;11.524;2023-04-15T10:59:36;3.78;;;1.98;;
64313;SDS011;50650;48.180;11.524;2023-04-15T11:02:04;6.95;;;2.63;;
64313;SDS011;50650;48.180;11.524;2023-04-15T11:07:37;4.55;;;2.00;;
64313;SDS011;50650;48.180;11.524;2023-04-15T11:13:20;5.28;;;2.65;;
64313;SDS011;50650;48.180;11.524;2023-04-15T11:15:47;6.63;;;2.40;;
64313;SDS011;50650;48.180;11.524;2023-04-15T11:18:14;5.55;;;2.70;;
64313;SDS011;50650;48.180;11.524;2023-04-15T11:20:43;5.55;;;2.85;;
64313;SDS011;50650;48.180;11.524;2023-04-15T11:23:11;6.07;;;2.83;;
64313;SDS011;50650;48.180;11.524;2023-04-15T11:25:37;4.60;;;2.67;;
64313;SDS011;50650;48.180;11.524;2023-04-15T11:28:04;4.70;;;2.53;;
64313;SDS011;50650;48.180;11.524;2023-04-15T11:30:32;4.15;;;2.30;;
64313;SDS011;50650;48.180;11.524;2023-04-15T11:33:00;6.22;;;2.78;;
64313;SDS011;50650;48.180;11.524;2023-04-15T11:35:28;5.85;;;3.00;;
64313;SDS011;50650;48.180;11.524;2023-04-15T11:37:56;4.18;;;2.95;;
64313;SDS011;50650;48.180;11.524;2023-04-15T11:40:22;4.00;;;2.90;;
64313;SDS011;50650;48.180;11.524;2023-04-15T11:43:02;5.78;;;2.63;;
64313;SDS011;50650;48.180;11.524;2023-04-15T11:45:29;6.63;;;3.20;;
64313;SDS011;50650;48.180;11.524;2023-04-15T11:48:00;8.57;;;3.85;;
64313;SDS011;50650;48.180;11.524;2023-04-15T11:50:30;8.38;;;2.65;;
64313;SDS011;50650;48.180;11.524;2023-04-15T11:52:59;4.80;;;2.33;;
64313;SDS011;50650;48.180;11.524;2023-04-15T11:55:26;5.78;;;2.35;;
64313;SDS011;50650;48.180;11.524;2023-04-15T11:58:04;4.88;;;2.50;;
64313;SDS011;50650;48.180;11.524;2023-04-15T12:00:32;4.50;;;2.45;;
64313;SDS011;50650;48.180;11.524;2023-04-15T12:03:10;7.50;;;2.88;;
64313;SDS011;50650;48.180;11.524;2023-04-15T12:08:55;5.03;;;2.38;;
64313;SDS011;50650;48.180;11.524;2023-04-15T12:11:27;7.65;;;2.63;;
64313;SDS011;50650;48.180;11.524;2023-04-15T12:13:55;4.85;;;2.28;;
64313;SDS011;50650;48.180;11.524;2023-04-15T12:16:23;6.10;;;2.20;;
64313;SDS011;50650;48.180;11.524;2023-04-15T12:18:50;5.85;;;3.38;;
64313;SDS011;50650;48.180;11.524;2023-04-15T12:21:19;6.22;;;3.47;;
64313;SDS011;50650;48.180;11.524;2023-04-15T12:23:48;3.15;;;1.90;;
64313;SDS011;50650;48.180;11.524;2023-04-15T12:26:17;8.02;;;4.18;;
64313;SDS011;50650;48.180;11.524;2023-04-15T12:28:44;5.88;;;2.25;;
64313;SDS011;50650;48.180;11.524;2023-04-15T12:31:11;5.10;;;2.65;;
64313;SDS011;50650;48.180;11.524;2023-04-15T12:33:38;7.45;;;2.40;;
64313;SDS011;50650;48.180;11.524;2023-04-15T12:36:04;4.15;;;2.03;;
64313;SDS011;50650;48.180;11.524;2023-04-15T12:38:32;7.57;;;2.10;;
64313;SDS011;50650;48.180;11.524;2023-04-15T12:40:58;5.35;;;2.33;;
64313;SDS011;50650;48.180;11.524;2023-04-15T12:43:26;3.50;;;1.60;;
64313;SDS011;50650;48.180;11.524;2023-04-15T12:45:52;6.38;;;1.67;;
64313;SDS011;50650;48.180;11.524;2023-04-15T12:48:19;3.22;;;1.60;;
64313;SDS011;50650;48.180;11.524;2023-04-15T12:50:45;5.30;;;1.70;;
64313;SDS011;50650;48.180;11.524;2023-04-15T12:53:12;3.75;;;1.48;;
64313;SDS011;50650;48.180;11.524;2023-04-15T12:55:38;3.30;;;1.67;;
64313;SDS011;50650;48.180;11.524;2023-04-15T12:58:05;2.85;;;1.40;;
64313;SDS011;50650;48.180;11.524;2023-04-15T13:00:33;3.90;;;1.50;;
64313;SDS011;50650;48.180;11.524;2023-04-15T13:03:00;3.30;;;1.60;;
64313;SDS011;50650;48.180;11.524;2023-04-15T13:05:26;2.50;;;1.30;;
64313;SDS011;50650;48.180;11.524;2023-04-15T13:07:52;4.40;;;1.67;;
64313;SDS011;50650;48.180;11.524;2023-04-15T13:10:19;6.57;;;1.52;;
64313;SDS011;50650;48.180;11.524;2023-04-15T13:12:46;3.72;;;1.85;;
64313;SDS011;50650;48.180;11.524;2023-04-15T13:15:14;6.95;;;2.10;;
64313;SDS011;50650;48.180;11.524;2023-04-15T13:17:44;4.60;;;2.30;;
64313;SDS011;50650;48.180;11.524;2023-04-15T13:20:11;4.55;;;2.40;;
64313;SDS011;50650;48.180;11.524;2023-04-15T13:22:37;6.18;;;2.28;;
64313;SDS011;50650;48.180;11.524;2023-04-15T13:25:04;7.18;;;2.17;;
64313;SDS011;50650;48.180;11.524;2023-04-15T13:27:31;6.88;;;2.78;;
64313;SDS011;50650;48.180;11.524;2023-04-15T13:29:58;4.47;;;1.75;;
64313;SDS011;50650;48.180;11.524;2023-04-15T13:32:24;7.20;;;1.80;;
64313;SDS011;50650;48.180;11.524;2023-04-15T13:34:52;4.07;;;2.00;;
64313;SDS011;50650;48.180;11.524;2023-04-15T13:37:21;4.53;;;2.10;;
64313;SDS011;50650;48.180;11.524;2023-04-15T13:39:51;4.93;;;2.22;;
64313;SDS011;50650;48.180;11.524;2023-04-15T13:42:17;3.35;;;1.95;;
64313;SDS011;50650;48.180;11.524;2023-04-15T13:44:44;5.43;;;2.28;;
64313;SDS011;50650;48.180;11.524;2023-04-15T13:47:10;4.32;;;2.22;;
64313;SDS011;50650;48.180;11.524;2023-04-15T13:49:37;4.22;;;2.08;;
64313;SDS011;50650;48.180;11.524;2023-04-15T13:52:04;4.05;;;2.30;;
64313;SDS011;50650;48.180;11.524;2023-04-15T13:54:31;4.07;;;2.10;;
64313;SDS011;50650;48.180;11.524;2023-04-15T13:56:57;4.10;;;2.47;;
64313;SDS011;50650;48.180;11.524;2023-04-15T13:59:24;3.42;;;1.77;;
64313;SDS011;50650;48.180;11.524;2023-04-15T14:01:50;2.95;;;1.73;;
64313;SDS011;50650;48.180;11.524;2023-04-15T14:04:17;3.20;;;2.00;;
64313;SDS011;50650;48.180;11.524;2023-04-15T14:06:43;4.60;;;2.13;;
64313;SDS011;50650;48.180;11.524;2023-04-15T14:09:11;3.53;;;2.00;;
64313;SDS011;50650;48.180;11.524;2023-04-15T14:11:38;5.15;;;2.20;;
64313;SDS011;50650;48.180;11.524;2023-04-15T14:14:04;3.83;;;1.63;;
64313;SDS011;50650;48.180;11.524;2023-04-15T14:16:31;2.72;;;1.77;;
64313;SDS011;50650;48.180;11.524;2023-04-15T14:18:57;4.18;;;1.55;;
64313;SDS011;50650;48.180;11.524;2023-04-15T14:21:24;2.55;;;1.50;;
64313;SDS011;50650;48.180;11.524;2023-04-15T14:23:52;2.88;;;1.30;;
64313;SDS011;50650;48.180;11.524;2023-04-15T14:26:20;6.63;;;1.80;;
64313;SDS011;50650;48.180;11.524;2023-04-15T14:28:47;4.55;;;1.58;;
64313;SDS011;50650;48.180;11.524;2023-04-15T14:31:13;3.88;;;1.63;;
64313;SDS011;50650;48.180;11.524;2023-04-15T14:33:40;3.55;;;1.65;;
64313;SDS011;50650;48.180;11.524;2023-04-15T14:36:06;4.70;;;1.65;;
64313;SDS011;50650;48.180;11.524;2023-04-15T14:38:33;7.15;;;1.80;;
64313;SDS011;50650;48.180;11.524;2023-04-15T14:41:02;3.40;;;1.70;;
64313;SDS011;50650;48.180;11.524;2023-04-15T14:43:30;4.07;;;1.77;;